Time;durP1;ratioP1;P1;durP2;ratioP2;P2;SDS_P1;SDS_P2;PMS_P1;PMS_P2;Temp;Humidity;BMP_temperature;BMP_pressure;BME280_temperature;BME280_humidity;BME280_pressure;Samples;Min_cycle;Max_cycle;Signal;HPM_P1;HPM_P2
2022/05/26 08:47:30;;;;;;;10.50;4.65;;;;;;;12.86;100.00;99898.97;1783506;79;21064;-47
2022/05/26 08:50:08;;;;;;;7.47;4.65;;;;;;;12.94;100.00;99902.36;1818218;78;21405;-47
2022/05/26 08:52:42;;;;;;;10.68;4.95;;;;;;;12.98;100.00;99913.22;1815648;78;21073;-47
2022/05/26 08:55:29;;;;;;;8.33;4.70;;;;;;;13.01;100.00;99917.98;1813628;78;21003;-41
2022/05/26 08:58:06;;;;;;;9.88;4.55;;;;;;;13.04;100.00;99928.88;1786619;78;21101;-41
2022/05/26 09:00:34;;;;;;;7.03;4.17;;;;;;;13.04;100.00;99919.27;1807464;78;21428;-46
2022/05/26 09:03:01;;;;;;;5.55;3.58;;;;;;;13.08;100.00;99915.26;1813782;78;21651;-42
2022/05/26 09:05:38;;;;;;;5.08;3.37;;;;;;;13.11;100.00;99923.97;1804584;79;20984;-40
2022/05/26 09:13:44;;;;;;;2.95;2.65;;;;;;;13.23;100.00;99908.48;1831850;78;21033;-38
2022/05/26 09:16:11;;;;;;;8.40;3.40;;;;;;;13.29;100.00;99911.88;1810907;78;21025;-45
2022/05/26 09:18:38;;;;;;;4.30;3.00;;;;;;;13.38;100.00;99908.65;1815332;78;21538;-39
2022/05/26 09:21:23;;;;;;;5.10;3.02;;;;;;;13.45;100.00;99903.28;1809294;79;20999;-39
2022/05/26 09:23:50;;;;;;;4.15;3.40;;;;;;;13.54;100.00;99908.35;1822210;78;21017;-46
2022/05/26 09:26:19;;;;;;;6.70;3.47;;;;;;;13.65;100.00;99911.23;1814349;79;21494;-46
2022/05/26 09:28:52;;;;;;;4.70;3.35;;;;;;;13.71;100.00;99915.93;1811221;78;21024;-39
2022/05/26 09:31:31;;;;;;;5.45;3.72;;;;;;;13.77;100.00;99910.55;1781701;78;21523;-39
2022/05/26 09:34:10;;;;;;;6.05;3.67;;;;;;;13.86;100.00;99918.73;1778016;78;21075;-46
2022/05/26 09:36:48;;;;;;;4.70;3.47;;;;;;;13.91;100.00;99919.93;1778679;80;21098;-39
2022/05/26 09:39:34;;;;;;;6.62;4.05;;;;;;;13.96;100.00;99917.63;1819522;78;21046;-38
2022/05/26 09:41:57;;;;;;;4.10;3.53;;;;;;;14.00;100.00;99917.13;1791252;79;21053;-45
2022/05/26 09:44:36;;;;;;;6.00;3.98;;;;;;;14.03;100.00;99919.27;1793354;79;20986;-39
2022/05/26 09:47:08;;;;;;;5.65;3.67;;;;;;;14.06;100.00;99925.77;1739408;81;21389;-45
2022/05/26 09:49:38;;;;;;;6.10;4.28;;;;;;;14.08;100.00;99933.16;1714471;83;21330;-39
2022/05/26 09:52:13;;;;;;;5.33;3.67;;;;;;;14.11;100.00;99933.56;1717082;82;21031;-43
2022/05/26 09:54:39;;;;;;;5.45;4.30;;;;;;;14.13;100.00;99938.79;1707647;82;21049;-46
2022/05/26 09:57:17;;;;;;;4.85;3.65;;;;;;;14.13;100.00;99926.50;1701005;82;21053;-41
2022/05/26 09:59:45;;;;;;;6.90;4.55;;;;;;;14.14;100.00;99924.28;1718469;83;21013;-46
2022/05/26 10:02:28;;;;;;;7.33;4.42;;;;;;;14.15;100.00;99929.98;1719907;83;21634;-46
2022/05/26 10:05:15;;;;;;;7.22;4.25;;;;;;;14.16;100.00;99932.17;1724830;82;21359;-45
2022/05/26 10:08:17;;;;;;;7.10;4.30;;;;;;;14.17;100.00;99946.59;1726868;82;21087;-39
2022/05/26 10:10:59;;;;;;;9.60;4.20;;;;;;;14.19;100.00;99946.11;1726170;82;21065;-40
2022/05/26 10:13:53;;;;;;;6.33;4.03;;;;;;;14.22;100.00;99952.64;1730550;82;21103;-46
2022/05/26 10:16:57;;;;;;;12.03;5.15;;;;;;;14.25;100.00;99941.17;1647085;87;21049;-46
2022/05/26 10:19:50;;;;;;;4.90;3.80;;;;;;;14.27;100.00;99953.41;1646796;87;21652;-39
2022/05/26 10:22:48;;;;;;;6.50;4.95;;;;;;;14.30;100.00;99951.16;1658379;85;21228;-47
2022/05/26 10:25:56;;;;;;;5.30;4.58;;;;;;;14.30;100.00;99944.12;1679004;84;21620;-41
2022/05/26 10:28:52;;;;;;;7.45;4.28;;;;;;;14.30;100.00;99948.52;1634172;87;21093;-48
2022/05/26 10:31:52;;;;;;;7.92;4.33;;;;;;;14.30;100.00;99960.36;1701233;84;20994;-40
2022/05/26 10:34:56;;;;;;;7.85;4.33;;;;;;;14.26;100.00;99945.11;1675319;84;21731;-47
2022/05/26 10:37:44;;;;;;;11.83;4.75;;;;;;;14.26;100.00;99938.95;1664094;84;21096;-46
2022/05/26 10:40:31;;;;;;;12.15;6.65;;;;;;;14.28;100.00;99943.75;1701626;84;20966;-40
2022/05/26 10:43:10;;;;;;;7.50;5.42;;;;;;;14.32;100.00;99942.77;1630855;87;21038;-40
2022/05/26 10:45:45;;;;;;;12.37;7.53;;;;;;;14.37;100.00;99936.52;1630809;87;21031;-48
2022/05/26 10:48:50;;;;;;;21.00;9.28;;;;;;;14.44;100.00;99943.85;1628507;87;21112;-40
2022/05/26 10:51:21;;;;;;;10.53;7.08;;;;;;;14.52;100.00;99946.34;1611222;88;21028;-48
2022/05/26 10:54:06;;;;;;;5.80;4.25;;;;;;;14.61;100.00;99935.17;1681466;84;21057;-40
2022/05/26 10:56:49;;;;;;;9.08;4.08;;;;;;;14.70;100.00;99938.03;1673743;85;21549;-40
2022/05/26 10:59:39;;;;;;;7.47;4.10;;;;;;;14.74;100.00;99948.92;1661075;85;21705;-41
2022/05/26 11:02:43;;;;;;;6.92;4.33;;;;;;;14.73;100.00;99947.20;1726429;82;20984;-48
2022/05/26 11:05:32;;;;;;;3.25;2.95;;;;;;;14.70;100.00;99944.62;1691967;85;21044;-47
2022/05/26 11:08:29;;;;;;;7.05;4.65;;;;;;;14.67;100.00;99955.66;1727347;82;21028;-48
2022/05/26 11:11:21;;;;;;;4.95;3.30;;;;;;;14.67;100.00;99946.44;1693523;85;21049;-40
2022/05/26 11:17:21;;;;;;;4.37;2.92;;;;;;;14.69;100.00;99945.52;1728344;82;21100;-40
2022/05/26 11:19:44;;;;;;;3.98;3.40;;;;;;;14.75;100.00;99951.11;1648188;86;21082;-48
2022/05/26 11:22:12;;;;;;;3.60;3.05;;;;;;;14.78;100.00;99949.70;1680825;84;21326;-41
2022/05/26 11:24:40;;;;;;;3.17;2.62;;;;;;;14.85;100.00;99953.95;1707513;84;21100;-48
2022/05/26 11:27:13;;;;;;;3.00;2.70;;;;;;;14.93;100.00;99964.30;1707590;84;21045;-47
2022/05/26 11:29:47;;;;;;;3.40;2.75;;;;;;;14.99;100.00;99953.63;1707613;84;21118;-47
2022/05/26 11:38:31;;;;;;;3.45;2.75;;;;;;;15.47;100.00;99941.00;1696419;84;21196;-43
2022/05/26 11:41:04;;;;;;;3.08;2.83;;;;;;;15.73;100.00;99948.74;1689335;84;21153;-41
2022/05/26 11:43:46;;;;;;;2.83;2.62;;;;;;;15.93;100.00;99930.59;1684784;85;21136;-40
2022/05/26 11:46:44;;;;;;;3.30;3.00;;;;;;;16.11;99.14;99936.67;1684869;84;21583;-47
2022/05/26 11:49:13;;;;;;;3.55;3.10;;;;;;;16.28;97.68;99935.33;1715781;83;21092;-41
2022/05/26 11:51:41;;;;;;;2.75;2.50;;;;;;;16.50;96.87;99946.98;1705772;82;21073;-41
2022/05/26 11:54:09;;;;;;;3.22;2.30;;;;;;;16.68;93.23;99931.05;1749404;79;21064;-40
2022/05/26 11:56:42;;;;;;;2.17;1.90;;;;;;;16.81;90.69;99923.17;1794544;78;21419;-41
2022/05/26 11:59:34;;;;;;;2.52;2.33;;;;;;;16.89;89.96;99931.73;1742450;82;21604;-48
2022/05/26 12:02:14;;;;;;;;;;;;;;;16.92;88.37;99922.38;1779058;79;21034;-47
2022/05/26 12:04:45;;;;;;;2.40;2.05;;;;;;;17.08;90.05;99927.18;1764108;79;20165;-41
2022/05/26 12:07:23;;;;;;;2.52;2.00;;;;;;;17.27;87.91;99920.36;1772566;79;21040;-41
2022/05/26 12:09:57;;;;;;;3.45;1.90;;;;;;;17.47;87.67;99923.68;1755069;81;21071;-41
